createdAt,value
2023-03-04T00:00:00.586Z,9.358529
2023-03-04T00:01:00.580Z,9.358518
2023-03-04T00:02:00.610Z,9.358499
2023-03-04T00:03:00.620Z,9.358548
2023-03-04T00:04:00.551Z,9.358582
2023-03-04T00:05:00.540Z,9.358521
2023-03-04T00:06:00.537Z,9.358516
2023-03-04T00:07:00.522Z,9.358582
2023-03-04T00:08:00.512Z,9.358585
2023-03-04T00:09:00.501Z,9.358520
2023-03-04T00:10:00.503Z,9.358551
2023-03-04T00:11:00.464Z,9.358558
2023-03-04T00:12:00.467Z,9.358540
2023-03-04T00:13:00.453Z,9.358543
2023-03-04T00:14:00.473Z,9.358537
2023-03-04T00:15:00.425Z,9.358518
2023-03-04T00:16:00.478Z,9.358532
2023-03-04T00:17:00.428Z,9.358609
2023-03-04T00:18:00.407Z,9.358632
2023-03-04T00:19:00.425Z,9.358688
2023-03-04T00:20:00.389Z,9.358676
2023-03-04T00:21:00.400Z,9.358691
2023-03-04T00:22:00.360Z,9.358657
2023-03-04T00:23:00.361Z,9.358631
2023-03-04T00:24:00.358Z,9.358580
2023-03-04T00:25:00.335Z,9.358515
2023-03-04T00:26:00.334Z,9.358469
2023-03-04T00:27:00.301Z,9.358518
2023-03-04T00:28:00.285Z,9.358544
2023-03-04T00:29:00.298Z,9.358545
2023-03-04T00:30:00.291Z,9.358592
2023-03-04T00:31:00.282Z,9.358631
2023-03-04T00:32:00.389Z,9.358588
2023-03-04T00:33:00.259Z,9.358527
2023-03-04T00:34:00.245Z,9.358548
2023-03-04T00:35:00.235Z,9.358566
2023-03-04T00:36:00.226Z,9.358571
2023-03-04T00:37:00.202Z,9.358573
2023-03-04T00:38:00.182Z,9.358548
2023-03-04T00:39:00.211Z,9.358568
2023-03-04T00:40:00.183Z,9.358585
2023-03-04T00:41:00.165Z,9.358624
2023-03-04T00:42:00.158Z,9.358638
2023-03-04T00:43:00.137Z,9.358571
2023-03-04T00:44:00.132Z,9.358646
2023-03-04T00:45:00.145Z,9.358596
2023-03-04T00:46:00.148Z,9.358556
2023-03-04T00:47:00.108Z,9.358562
2023-03-04T00:48:00.079Z,9.358512
2023-03-04T00:49:00.088Z,9.358504
2023-03-04T00:50:00.098Z,9.358515
2023-03-04T00:51:00.059Z,9.358560
2023-03-04T00:52:00.036Z,9.358522
2023-03-04T00:53:00.029Z,9.358468
2023-03-04T00:54:01.041Z,9.358516
2023-03-04T00:55:01.005Z,9.358544
2023-03-04T00:56:00.001Z,9.358591
2023-03-04T00:57:00.008Z,9.358564
2023-03-04T00:57:59.983Z,9.358562
2023-03-04T00:58:59.965Z,9.358540
2023-03-04T00:59:59.955Z,9.358521
2023-03-04T01:00:59.992Z,9.358538
2023-03-04T01:01:59.952Z,9.358471
2023-03-04T01:02:59.944Z,9.358581
2023-03-04T01:03:59.915Z,9.358566
2023-03-04T01:04:59.914Z,9.358531
2023-03-04T01:05:59.898Z,9.358557
2023-03-04T01:06:59.887Z,9.358582
2023-03-04T01:07:59.857Z,9.358530
2023-03-04T01:08:59.872Z,9.358539
2023-03-04T01:09:59.851Z,9.358560
2023-03-04T01:10:59.829Z,9.358523
2023-03-04T01:11:59.840Z,9.358655
2023-03-04T01:12:59.817Z,9.358648
2023-03-04T01:13:59.819Z,9.358635
2023-03-04T01:14:59.802Z,9.358620
2023-03-04T01:15:59.794Z,9.358623
2023-03-04T01:16:59.878Z,9.358598
2023-03-04T01:17:59.803Z,9.358569
2023-03-04T01:18:59.776Z,9.358541
2023-03-04T01:19:59.757Z,9.358543
2023-03-04T01:20:59.741Z,9.358540
2023-03-04T01:21:59.729Z,9.358558
2023-03-04T01:22:59.731Z,9.358538
2023-03-04T01:23:59.696Z,9.358655
2023-03-04T01:24:59.697Z,9.358670
2023-03-04T01:25:59.681Z,9.358592
2023-03-04T01:26:59.685Z,9.358517
2023-03-04T01:27:59.659Z,9.358524
2023-03-04T01:28:59.647Z,9.358546
2023-03-04T01:29:59.659Z,9.358534
2023-03-04T01:30:59.689Z,9.358562
2023-03-04T01:31:59.658Z,9.358609
2023-03-04T01:32:59.604Z,9.358674
2023-03-04T01:33:59.590Z,9.358688
2023-03-04T01:34:59.591Z,9.358621
2023-03-04T01:35:59.618Z,9.358554
2023-03-04T01:36:59.556Z,9.358545
2023-03-04T01:37:59.548Z,9.358580
2023-03-04T01:38:59.561Z,9.358603
2023-03-04T01:39:59.545Z,9.358636
2023-03-04T01:40:59.521Z,9.358589
2023-03-04T01:41:59.520Z,9.358615
2023-03-04T01:42:59.508Z,9.358685
2023-03-04T01:43:59.492Z,9.358629
2023-03-04T01:44:59.465Z,9.358668
2023-03-04T01:45:59.492Z,9.358653
2023-03-04T01:46:59.476Z,9.358624
2023-03-04T01:47:59.433Z,9.358628
2023-03-04T01:48:59.506Z,9.358614
2023-03-04T01:49:59.426Z,9.358663
2023-03-04T01:50:59.413Z,9.358636
2023-03-04T01:51:59.416Z,9.358575
2023-03-04T01:52:59.400Z,9.358513
2023-03-04T01:53:59.375Z,9.358448
2023-03-04T01:54:59.375Z,9.358525
2023-03-04T01:55:59.366Z,9.358579
2023-03-04T01:56:59.360Z,9.358582
2023-03-04T01:57:59.328Z,9.358599
2023-03-04T01:58:59.330Z,9.358467
2023-03-04T01:59:59.334Z,9.358656
2023-03-04T02:00:59.327Z,9.358608
2023-03-04T02:01:59.302Z,9.358509
2023-03-04T02:02:59.288Z,9.358553
2023-03-04T02:03:59.371Z,9.358563
2023-03-04T02:04:59.277Z,9.358540
2023-03-04T02:05:59.256Z,9.358575
2023-03-04T02:06:59.236Z,9.358570
2023-03-04T02:07:59.233Z,9.358541
2023-03-04T02:08:59.225Z,9.358537
2023-03-04T02:09:59.209Z,9.358556
2023-03-04T02:10:59.203Z,9.358539
2023-03-04T02:11:59.184Z,9.358545
2023-03-04T02:12:59.191Z,9.358564
2023-03-04T02:13:59.185Z,9.358585
2023-03-04T02:14:59.146Z,9.358548
2023-03-04T02:15:59.183Z,9.358566
2023-03-04T02:16:59.135Z,9.358592
2023-03-04T02:17:59.134Z,9.358553
2023-03-04T02:18:59.113Z,9.358563
2023-03-04T02:19:59.109Z,9.358519
2023-03-04T02:20:59.101Z,9.358472
2023-03-04T02:21:59.075Z,9.358469
2023-03-04T02:22:59.071Z,9.358500
2023-03-04T02:23:59.059Z,9.358530
2023-03-04T02:24:59.054Z,9.358568
2023-03-04T02:25:59.049Z,9.358579
2023-03-04T02:26:59.023Z,9.358566
2023-03-04T02:27:59.007Z,9.358546
2023-03-04T02:28:59.007Z,9.358565
2023-03-04T02:29:58.996Z,9.358577
2023-03-04T02:30:59.004Z,9.358525
2023-03-04T02:31:59.051Z,9.358568
2023-03-04T02:32:58.966Z,9.358555
2023-03-04T02:33:58.951Z,9.358557
2023-03-04T02:34:58.941Z,9.358507
2023-03-04T02:35:58.966Z,9.358532
2023-03-04T02:36:58.919Z,9.358510
2023-03-04T02:37:58.910Z,9.358472
2023-03-04T02:38:58.908Z,9.358506
2023-03-04T02:39:58.885Z,9.358537
2023-03-04T02:40:58.901Z,9.358562
2023-03-04T02:41:58.865Z,9.358621
2023-03-04T02:42:58.872Z,9.358563
2023-03-04T02:43:58.847Z,9.358546
2023-03-04T02:44:58.850Z,9.358521
2023-03-04T02:45:58.826Z,9.358475
2023-03-04T02:46:58.816Z,9.358505
2023-03-04T02:47:58.813Z,9.358532
2023-03-04T02:48:58.818Z,9.358532
2023-03-04T02:49:58.807Z,9.358550
2023-03-04T02:50:58.779Z,9.358553
2023-03-04T02:51:58.774Z,9.358541
2023-03-04T02:52:58.760Z,9.358525
2023-03-04T02:53:58.746Z,9.358541
2023-03-04T02:54:58.770Z,9.358498
2023-03-04T02:55:58.734Z,9.358540
2023-03-04T02:56:58.722Z,9.358512
2023-03-04T02:57:58.715Z,9.358521
2023-03-04T02:58:58.695Z,9.358522
2023-03-04T02:59:58.693Z,9.358497
2023-03-04T03:00:58.673Z,9.358522
2023-03-04T03:01:58.684Z,9.358527
2023-03-04T03:02:58.693Z,9.358520
2023-03-04T03:03:58.648Z,9.358509
2023-03-04T03:04:58.654Z,9.358505
2023-03-04T03:05:58.628Z,9.358507
2023-03-04T03:06:58.610Z,9.358555
2023-03-04T03:07:58.621Z,9.358560
2023-03-04T03:08:58.591Z,9.358546
2023-03-04T03:09:58.597Z,9.358546
2023-03-04T03:10:58.570Z,9.358581
2023-03-04T03:11:58.563Z,9.358583
2023-03-04T03:12:58.546Z,9.358631
2023-03-04T03:13:58.552Z,9.358574
2023-03-04T03:14:58.540Z,9.358550
2023-03-04T03:15:58.547Z,9.358538
2023-03-04T03:16:58.522Z,9.358542
2023-03-04T03:17:58.488Z,9.358538
2023-03-04T03:18:58.502Z,9.358510
2023-03-04T03:19:58.493Z,9.358636
2023-03-04T03:20:58.459Z,9.358605
2023-03-04T03:21:58.460Z,9.358659
2023-03-04T03:22:58.447Z,9.358580
2023-03-04T03:23:58.471Z,9.358495
2023-03-04T03:24:58.423Z,9.358509
2023-03-04T03:25:58.415Z,9.358442
2023-03-04T03:26:58.398Z,9.358454
2023-03-04T03:27:58.389Z,9.358533
2023-03-04T03:28:58.390Z,9.358582
2023-03-04T03:29:58.355Z,9.358587
2023-03-04T03:30:58.348Z,9.358539
2023-03-04T03:31:58.378Z,9.358555
2023-03-04T03:32:58.323Z,9.358642
2023-03-04T03:33:58.312Z,9.358568
2023-03-04T03:34:58.314Z,9.358556
2023-03-04T03:35:58.393Z,9.358546
2023-03-04T03:36:58.298Z,9.358509
2023-03-04T03:37:58.282Z,9.358558
2023-03-04T03:38:58.259Z,9.358619
2023-03-04T03:39:58.274Z,9.358527
2023-03-04T03:40:58.250Z,9.358622
2023-03-04T03:41:58.253Z,9.358583
2023-03-04T03:42:58.220Z,9.358554
2023-03-04T03:43:58.203Z,9.358570
2023-03-04T03:44:58.224Z,9.358568
2023-03-04T03:45:58.235Z,9.358586
2023-03-04T03:46:58.201Z,9.358609
2023-03-04T03:47:58.176Z,9.358637
2023-03-04T03:48:58.161Z,9.358618
2023-03-04T03:49:58.144Z,9.358581
2023-03-04T03:50:58.129Z,9.358716
2023-03-04T03:51:58.143Z,9.358653
2023-03-04T03:52:58.118Z,9.358590
2023-03-04T03:53:58.098Z,9.358543
2023-03-04T03:54:58.707Z,9.358601
2023-03-04T03:55:58.099Z,9.358572
2023-03-04T03:56:58.060Z,9.358563
2023-03-04T03:57:58.067Z,9.358550
2023-03-04T03:58:58.058Z,9.358583
2023-03-04T03:59:58.044Z,9.358671
2023-03-04T04:00:58.635Z,9.358658
2023-03-04T04:01:59.100Z,9.358665
2023-03-04T04:02:58.080Z,9.358671
2023-03-04T04:03:58.013Z,9.358619
2023-03-04T04:04:58.013Z,9.358638
2023-03-04T04:05:57.986Z,9.358577
2023-03-04T04:06:57.981Z,9.358621
2023-03-04T04:07:57.971Z,9.358626
2023-03-04T04:08:57.976Z,9.358600
2023-03-04T04:09:57.947Z,9.358588
2023-03-04T04:10:57.936Z,9.358549
2023-03-04T04:11:57.924Z,9.358609
2023-03-04T04:12:57.911Z,9.358614
2023-03-04T04:13:57.905Z,9.358648
2023-03-04T04:14:57.906Z,9.358642
2023-03-04T04:15:57.890Z,9.358633
2023-03-04T04:16:57.879Z,9.358626
2023-03-04T04:17:57.865Z,9.358661
2023-03-04T04:18:57.848Z,9.358684
2023-03-04T04:19:57.851Z,9.358657
2023-03-04T04:20:57.825Z,9.358632
2023-03-04T04:21:57.814Z,9.358589
2023-03-04T04:22:57.801Z,9.358585
2023-03-04T04:23:57.821Z,9.358589
2023-03-04T04:24:57.795Z,9.358643
2023-03-04T04:25:57.784Z,9.358605
2023-03-04T04:26:57.759Z,9.358620
2023-03-04T04:27:58.758Z,9.358555
2023-03-04T04:28:57.761Z,9.358575
2023-03-04T04:32:17.382Z,9.358569
2023-03-04T04:33:17.335Z,9.358589
2023-03-04T04:34:17.347Z,9.358582
2023-03-04T04:35:17.329Z,9.358535
2023-03-04T04:36:17.335Z,9.358481
2023-03-04T04:37:17.309Z,9.358607
2023-03-04T04:38:21.493Z,9.358580
2023-03-04T04:39:17.265Z,9.358484
2023-03-04T04:40:17.276Z,9.358512
2023-03-04T04:41:17.252Z,9.358519
2023-03-04T04:42:17.245Z,9.358603
2023-03-04T04:43:17.225Z,9.358578
2023-03-04T04:44:17.220Z,9.358538
2023-03-04T04:45:17.218Z,9.358580
2023-03-04T04:46:17.270Z,9.358616
2023-03-04T04:47:17.205Z,9.358472
2023-03-04T04:48:17.191Z,9.358562
2023-03-04T04:49:17.165Z,9.358612
2023-03-04T04:50:17.147Z,9.358596
2023-03-04T04:51:17.176Z,9.358557
2023-03-04T04:52:17.140Z,9.358557
2023-03-04T04:53:17.126Z,9.358565
2023-03-04T04:54:17.112Z,9.358541
2023-03-04T04:55:17.141Z,9.358532
2023-03-04T04:56:17.087Z,9.358522
2023-03-04T04:57:17.083Z,9.358397
2023-03-04T04:58:17.082Z,9.358386
2023-03-04T04:59:17.064Z,9.358419
2023-03-04T05:00:17.054Z,9.358487
2023-03-04T05:01:17.092Z,9.358509
2023-03-04T05:02:17.031Z,9.358608
2023-03-04T05:03:18.560Z,9.358581
2023-03-04T05:04:18.064Z,9.358575
2023-03-04T05:05:16.999Z,9.358569
2023-03-04T05:06:16.983Z,9.358557
2023-03-04T05:07:16.962Z,9.358519
2023-03-04T05:08:17.977Z,9.358525
2023-03-04T05:09:16.953Z,9.358549
2023-03-04T05:10:16.953Z,9.358542
2023-03-04T05:11:16.978Z,9.358500
2023-03-04T05:12:16.947Z,9.358515
2023-03-04T05:13:16.912Z,9.358562
2023-03-04T05:14:16.920Z,9.358599
2023-03-04T05:15:16.984Z,9.358595
2023-03-04T05:16:16.956Z,9.358564
2023-03-04T05:17:16.914Z,9.358563
2023-03-04T05:18:16.885Z,9.358583
2023-03-04T05:19:16.852Z,9.358600
2023-03-04T05:20:16.858Z,9.358545
2023-03-04T05:21:16.858Z,9.358533
2023-03-04T05:22:16.815Z,9.358535
2023-03-04T05:23:16.832Z,9.358521
2023-03-04T05:24:16.807Z,9.358582
2023-03-04T05:25:16.794Z,9.358537
2023-03-04T05:26:16.814Z,9.358624
2023-03-04T05:27:16.795Z,9.358635
2023-03-04T05:28:16.767Z,9.358600
2023-03-04T05:29:16.752Z,9.358519
2023-03-04T05:30:16.750Z,9.358551
2023-03-04T05:31:16.799Z,9.358541
2023-03-04T05:32:16.824Z,9.358527
2023-03-04T05:33:16.717Z,9.358523
2023-03-04T05:34:16.704Z,9.358534
2023-03-04T05:35:16.760Z,9.358528
2023-03-04T05:36:16.722Z,9.358591
2023-03-04T05:37:16.674Z,9.358633
2023-03-04T05:38:16.659Z,9.358611
2023-03-04T05:39:16.664Z,9.358540
2023-03-04T05:40:16.671Z,9.358503
2023-03-04T05:41:16.634Z,9.358490
2023-03-04T05:42:16.641Z,9.358536
2023-03-04T05:43:16.628Z,9.358523
2023-03-04T05:44:16.616Z,9.358552
2023-03-04T05:45:16.599Z,9.358664
2023-03-04T05:46:16.648Z,9.358638
2023-03-04T05:47:16.580Z,9.358512
2023-03-04T05:48:16.549Z,9.358528
2023-03-04T05:49:17.567Z,9.358603
2023-03-04T05:50:16.551Z,9.358521
2023-03-04T05:51:16.546Z,9.358558
2023-03-04T05:52:17.512Z,9.358532
2023-03-04T05:53:16.538Z,9.358571
2023-03-04T05:54:16.507Z,9.358574
2023-03-04T05:55:17.494Z,9.358582
2023-03-04T05:56:16.506Z,9.358554
2023-03-04T05:57:16.483Z,9.358583
2023-03-04T05:58:16.466Z,9.358706
2023-03-04T05:59:16.466Z,9.358687
2023-03-04T06:00:16.456Z,9.358665
2023-03-04T06:01:16.639Z,9.358535
2023-03-04T06:02:16.470Z,9.358560
2023-03-04T06:03:16.410Z,9.358553
2023-03-04T06:04:16.405Z,9.358640
2023-03-04T06:05:16.419Z,9.358669
2023-03-04T06:06:16.393Z,9.358672
2023-03-04T06:07:16.388Z,9.358622
2023-03-04T06:08:16.377Z,9.358618
2023-03-04T06:09:16.343Z,9.358600
2023-03-04T06:10:16.363Z,9.358574
2023-03-04T06:11:16.352Z,9.358627
2023-03-04T06:12:16.318Z,9.358617
2023-03-04T06:13:16.316Z,9.358603
2023-03-04T06:14:16.331Z,9.358739
2023-03-04T06:15:16.298Z,9.358649
2023-03-04T06:16:16.297Z,9.358595
2023-03-04T06:17:16.294Z,9.358621
2023-03-04T06:18:16.280Z,9.358596
2023-03-04T06:19:16.257Z,9.358562
2023-03-04T06:20:16.234Z,9.358533
2023-03-04T06:21:16.223Z,9.358581
2023-03-04T06:22:16.258Z,9.358563
2023-03-04T06:23:16.225Z,9.358523
2023-03-04T06:24:16.198Z,9.358530
2023-03-04T06:25:16.208Z,9.358522
2023-03-04T06:26:16.184Z,9.358487
2023-03-04T06:27:16.169Z,9.358535
2023-03-04T06:28:16.184Z,9.358501
2023-03-04T06:29:16.159Z,9.358517
2023-03-04T06:30:16.148Z,9.358574
2023-03-04T06:31:17.195Z,9.358582
2023-03-04T06:32:16.149Z,9.358644
2023-03-04T06:33:16.111Z,9.358645
2023-03-04T06:34:16.113Z,9.358636
2023-03-04T06:35:16.087Z,9.358633
2023-03-04T06:36:16.104Z,9.358569
2023-03-04T06:37:16.091Z,9.358564
2023-03-04T06:38:16.072Z,9.358644
2023-03-04T06:39:16.062Z,9.358551
2023-03-04T06:40:16.057Z,9.358550
2023-03-04T06:41:16.028Z,9.358511
2023-03-04T06:42:16.022Z,9.358547
2023-03-04T06:43:16.015Z,9.358562
2023-03-04T06:44:16.019Z,9.358500
2023-03-04T06:45:15.971Z,9.358471
2023-03-04T06:46:16.018Z,9.358517
2023-03-04T06:47:15.980Z,9.358441
2023-03-04T06:48:15.956Z,9.358415
2023-03-04T06:49:15.949Z,9.358454
2023-03-04T06:50:16.929Z,9.358521
2023-03-04T06:51:15.937Z,9.358499
2023-03-04T06:52:15.918Z,9.358447
2023-03-04T06:53:15.919Z,9.358519
2023-03-04T06:54:15.937Z,9.358549
2023-03-04T06:55:15.881Z,9.358483
2023-03-04T06:56:15.865Z,9.358567
2023-03-04T06:57:15.873Z,9.358608
2023-03-04T06:58:15.882Z,9.358526
2023-03-04T06:59:15.880Z,9.358503
2023-03-04T07:00:15.816Z,9.358480
2023-03-04T07:01:16.878Z,9.358526
2023-03-04T07:02:16.809Z,9.358540
2023-03-04T07:03:15.800Z,9.358521
2023-03-04T07:04:15.870Z,9.358523
2023-03-04T07:05:15.803Z,9.358504
2023-03-04T07:06:15.781Z,9.358535
2023-03-04T07:07:15.764Z,9.358528
2023-03-04T07:08:15.772Z,9.358541
2023-03-04T07:09:15.743Z,9.358569
2023-03-04T07:10:15.750Z,9.358520
2023-03-04T07:11:15.732Z,9.358490
2023-03-04T07:12:15.725Z,9.358492
2023-03-04T07:13:15.690Z,9.358498
2023-03-04T07:14:15.698Z,9.358503
2023-03-04T07:15:15.711Z,9.358490
2023-03-04T07:16:15.694Z,9.358483
2023-03-04T07:17:15.672Z,9.358499
2023-03-04T07:18:15.670Z,9.358560
2023-03-04T07:19:15.648Z,9.358507
2023-03-04T07:20:15.630Z,9.358414
2023-03-04T07:21:15.642Z,9.358459
2023-03-04T07:22:15.612Z,9.358465
2023-03-04T07:23:15.600Z,9.358499
2023-03-04T07:24:15.597Z,9.358480
2023-03-04T07:25:15.580Z,9.358441
2023-03-04T07:26:15.567Z,9.358455
2023-03-04T07:27:15.560Z,9.358449
2023-03-04T07:28:15.566Z,9.358438
2023-03-04T07:29:15.547Z,9.358455
2023-03-04T07:30:15.541Z,9.358487
2023-03-04T07:31:15.556Z,9.358464
2023-03-04T07:32:15.621Z,9.358513
2023-03-04T07:33:15.497Z,9.358522
2023-03-04T07:34:15.492Z,9.358521
2023-03-04T07:35:15.503Z,9.358520
2023-03-04T07:36:15.465Z,9.358509
2023-03-04T07:37:15.452Z,9.358483
2023-03-04T07:38:15.452Z,9.358472
2023-03-04T07:39:15.435Z,9.358448
2023-03-04T07:40:15.447Z,9.358450
2023-03-04T07:41:15.430Z,9.358488
2023-03-04T07:42:15.423Z,9.358448
2023-03-04T07:43:15.413Z,9.358542
2023-03-04T07:44:15.422Z,9.358562
2023-03-04T07:45:15.393Z,9.358524
2023-03-04T07:46:15.427Z,9.358517
2023-03-04T07:47:15.378Z,9.358506
2023-03-04T07:48:15.373Z,9.358553
2023-03-04T07:49:15.378Z,9.358500
2023-03-04T07:50:17.630Z,9.358509
2023-03-04T07:51:15.342Z,9.358549
2023-03-04T07:52:15.314Z,9.358477
2023-03-04T07:53:15.302Z,9.358474
2023-03-04T07:54:15.311Z,9.358448
2023-03-04T07:55:15.315Z,9.358488
2023-03-04T07:56:15.271Z,9.358465
2023-03-04T07:57:15.275Z,9.358487
2023-03-04T07:58:15.252Z,9.358489
2023-03-04T07:59:15.264Z,9.358514
2023-03-04T08:00:15.281Z,9.358490
2023-03-04T08:01:15.242Z,9.358489
2023-03-04T08:02:15.215Z,9.358519
2023-03-04T08:03:15.223Z,9.358529
2023-03-04T08:04:15.317Z,9.358519
2023-03-04T08:05:15.225Z,9.358499
2023-03-04T08:06:15.173Z,9.358481
2023-03-04T08:07:15.196Z,9.358511
2023-03-04T08:08:17.287Z,9.358544
2023-03-04T08:09:15.161Z,9.358504
2023-03-04T08:10:15.161Z,9.358535
2023-03-04T08:11:15.140Z,9.358543
2023-03-04T08:12:15.142Z,9.358581
2023-03-04T08:13:15.143Z,9.358568
2023-03-04T08:14:15.113Z,9.358553
2023-03-04T08:15:15.096Z,9.358538
2023-03-04T08:16:15.135Z,9.358517
2023-03-04T08:17:15.092Z,9.358532
2023-03-04T08:18:15.070Z,9.358484
2023-03-04T08:19:15.083Z,9.358455
2023-03-04T08:20:15.038Z,9.358438
2023-03-04T08:21:15.038Z,9.358466
2023-03-04T08:22:15.034Z,9.358503
2023-03-04T08:23:15.022Z,9.358461
2023-03-04T08:24:14.993Z,9.358424
2023-03-04T08:25:14.996Z,9.358491
2023-03-04T08:26:14.985Z,9.358436
2023-03-04T08:27:14.984Z,9.358461
2023-03-04T08:28:14.961Z,9.358453
2023-03-04T08:29:14.977Z,9.358432
2023-03-04T08:30:14.931Z,9.358427
2023-03-04T08:31:15.095Z,9.358451
2023-03-04T08:32:15.062Z,9.358490
2023-03-04T08:33:14.906Z,9.358484
2023-03-04T08:34:14.918Z,9.358471
2023-03-04T08:35:14.914Z,9.358485
2023-03-04T08:36:14.878Z,9.358492
2023-03-04T08:37:14.901Z,9.358501
2023-03-04T08:38:14.876Z,9.358509
2023-03-04T08:39:14.861Z,9.358546
2023-03-04T08:40:14.857Z,9.358477
2023-03-04T08:41:14.822Z,9.358512
2023-03-04T08:42:14.825Z,9.358476
2023-03-04T08:43:14.823Z,9.358501
2023-03-04T08:44:14.812Z,9.358582
2023-03-04T08:45:14.794Z,9.358581
2023-03-04T08:46:14.911Z,9.358619
2023-03-04T08:47:14.768Z,9.358665
2023-03-04T08:48:14.757Z,9.358666
2023-03-04T08:49:14.790Z,9.358640
2023-03-04T08:50:14.741Z,9.358580
2023-03-04T08:51:14.712Z,9.358540
2023-03-04T08:52:14.710Z,9.358513
2023-03-04T08:53:14.714Z,9.358521
2023-03-04T08:54:14.727Z,9.358532
2023-03-04T08:55:14.708Z,9.358586
2023-03-04T08:56:14.679Z,9.358586
2023-03-04T08:57:14.678Z,9.358591
2023-03-04T08:58:14.658Z,9.358584
2023-03-04T08:59:14.656Z,9.358562
2023-03-04T09:00:14.629Z,9.358549
2023-03-04T09:01:14.651Z,9.358514
2023-03-04T09:02:14.622Z,9.358516
2023-03-04T09:03:14.631Z,9.358534
2023-03-04T09:04:14.592Z,9.358579
2023-03-04T09:05:14.598Z,9.358599
2023-03-04T09:06:14.599Z,9.358549
2023-03-04T09:07:14.580Z,9.358548
2023-03-04T09:08:14.565Z,9.358558
2023-03-04T09:09:14.543Z,9.358545
2023-03-04T09:10:14.535Z,9.358530
2023-03-04T09:11:14.523Z,9.358509
2023-03-04T09:12:14.514Z,9.358511
2023-03-04T09:13:14.517Z,9.358544
2023-03-04T09:14:14.515Z,9.358568
2023-03-04T09:15:14.474Z,9.358534
2023-03-04T09:16:14.621Z,9.358482
2023-03-04T09:17:14.447Z,9.358496
2023-03-04T09:18:14.474Z,9.358498
2023-03-04T09:19:14.458Z,9.358504
2023-03-04T09:20:14.441Z,9.358532
2023-03-04T09:21:14.439Z,9.358562
2023-03-04T09:22:14.413Z,9.358525
2023-03-04T09:23:14.404Z,9.358616
2023-03-04T09:24:14.397Z,9.358530
2023-03-04T09:25:14.395Z,9.358570
2023-03-04T09:26:14.358Z,9.358585
2023-03-04T09:27:14.357Z,9.358475
2023-03-04T09:28:14.363Z,9.358462
2023-03-04T09:29:14.348Z,9.358465
2023-03-04T09:30:14.365Z,9.358497
2023-03-04T09:31:14.406Z,9.358514
2023-03-04T09:32:14.474Z,9.358539
2023-03-04T09:33:14.296Z,9.358500
2023-03-04T09:34:14.297Z,9.358530
2023-03-04T09:35:14.301Z,9.358508
2023-03-04T09:36:14.332Z,9.358568
2023-03-04T09:37:14.264Z,9.358614
2023-03-04T09:38:14.249Z,9.358609
2023-03-04T09:39:14.266Z,9.358708
2023-03-04T09:40:14.217Z,9.358695
2023-03-04T09:41:14.227Z,9.358705
2023-03-04T09:42:14.212Z,9.358604
2023-03-04T09:43:14.209Z,9.358566
2023-03-04T09:44:14.210Z,9.358601
2023-03-04T09:45:14.192Z,9.358561
2023-03-04T09:46:14.203Z,9.358519
2023-03-04T09:47:14.154Z,9.358507
2023-03-04T09:48:14.162Z,9.358558
2023-03-04T09:49:14.147Z,9.358585
2023-03-04T09:50:14.139Z,9.358533
2023-03-04T09:51:14.128Z,9.358531
2023-03-04T09:52:14.105Z,9.358583
2023-03-04T09:53:14.096Z,9.358567
2023-03-04T09:54:14.099Z,9.358546
2023-03-04T09:55:14.075Z,9.358541
2023-03-04T09:56:14.059Z,9.358555
2023-03-04T09:57:14.054Z,9.358558
2023-03-04T09:58:14.054Z,9.358598
2023-03-04T09:59:14.039Z,9.358619
2023-03-04T10:00:14.132Z,9.358576
2023-03-04T10:01:14.036Z,9.358542
2023-03-04T10:02:13.985Z,9.358533
2023-03-04T10:03:14.038Z,9.358544
2023-03-04T10:04:13.998Z,9.358540
2023-03-04T10:05:13.978Z,9.358543
2023-03-04T10:06:13.942Z,9.358541
2023-03-04T10:07:13.943Z,9.358536
2023-03-04T10:08:13.932Z,9.358553
2023-03-04T10:09:13.926Z,9.358536
2023-03-04T10:10:13.912Z,9.358542
2023-03-04T10:11:13.895Z,9.358498
2023-03-04T10:12:13.874Z,9.358499
2023-03-04T10:13:13.896Z,9.358548
2023-03-04T10:14:13.873Z,9.358538
2023-03-04T10:15:13.863Z,9.358381
2023-03-04T10:16:13.896Z,9.358478
2023-03-04T10:17:13.862Z,9.358508
2023-03-04T10:18:13.833Z,9.358485
2023-03-04T10:19:13.820Z,9.358546
2023-03-04T10:20:13.793Z,9.358530
2023-03-04T10:21:13.790Z,9.358527
2023-03-04T10:22:13.760Z,9.358570
2023-03-04T10:23:13.768Z,9.358597
2023-03-04T10:24:13.755Z,9.358621
2023-03-04T10:25:29.275Z,9.358756
2023-03-04T10:26:13.782Z,9.358571
2023-03-04T10:27:13.744Z,9.358634
2023-03-04T10:28:13.705Z,9.358591
2023-03-04T10:29:13.703Z,9.358552
2023-03-04T10:30:13.690Z,9.358599
2023-03-04T10:31:13.723Z,9.358565
2023-03-04T10:32:13.725Z,9.358503
2023-03-04T10:33:13.652Z,9.358479
2023-03-04T10:34:13.642Z,9.358495
2023-03-04T10:35:13.628Z,9.358541
2023-03-04T10:36:13.633Z,9.358566
2023-03-04T10:37:13.616Z,9.358552
2023-03-04T10:38:13.593Z,9.358515
2023-03-04T10:39:14.342Z,9.358526
2023-03-04T10:40:13.558Z,9.358514
2023-03-04T10:41:13.576Z,9.358497
2023-03-04T10:42:13.642Z,9.358558
2023-03-04T10:43:13.525Z,9.358579
2023-03-04T10:44:13.520Z,9.358636
2023-03-04T10:45:13.512Z,9.358638
2023-03-04T10:46:13.521Z,9.358570
2023-03-04T10:47:13.486Z,9.358597
2023-03-04T10:48:13.494Z,9.358595
2023-03-04T10:49:13.464Z,9.358606
2023-03-04T10:50:13.458Z,9.358597
2023-03-04T10:51:13.484Z,9.358509
2023-03-04T10:52:13.452Z,9.358496
2023-03-04T10:53:13.437Z,9.358546
2023-03-04T10:54:13.407Z,9.358582
2023-03-04T10:55:13.384Z,9.358552
2023-03-04T10:56:13.380Z,9.358586
2023-03-04T10:57:13.396Z,9.358536
2023-03-04T10:58:13.369Z,9.358572
2023-03-04T10:59:13.341Z,9.358536
2023-03-04T11:00:13.351Z,9.358575
2023-03-04T11:01:13.381Z,9.358632
2023-03-04T11:02:13.326Z,9.358574
2023-03-04T11:03:13.314Z,9.358591
2023-03-04T11:04:13.411Z,9.358550
2023-03-04T11:05:13.294Z,9.358490
2023-03-04T11:06:13.280Z,9.358479
2023-03-04T11:07:13.279Z,9.358497
2023-03-04T11:08:13.250Z,9.358549
2023-03-04T11:09:13.243Z,9.358568
2023-03-04T11:10:13.258Z,9.358577
2023-03-04T11:11:13.219Z,9.358602
2023-03-04T11:12:13.218Z,9.358600
2023-03-04T11:13:13.191Z,9.358638
2023-03-04T11:14:13.193Z,9.358571
2023-03-04T11:15:13.198Z,9.358526
2023-03-04T11:16:13.210Z,9.358513
2023-03-04T11:17:13.150Z,9.358536
2023-03-04T11:18:13.158Z,9.358554
2023-03-04T11:19:13.138Z,9.358578
2023-03-04T11:20:13.132Z,9.358546
2023-03-04T11:21:13.119Z,9.358625
2023-03-04T11:22:13.102Z,9.358683
2023-03-04T11:23:13.076Z,9.358647
2023-03-04T11:24:27.145Z,9.358592
2023-03-04T11:25:15.082Z,9.358567
2023-03-04T11:26:13.051Z,9.358560
2023-03-04T11:27:13.059Z,9.358552
2023-03-04T11:28:14.044Z,9.358515
2023-03-04T11:29:13.047Z,9.358536
2023-03-04T11:30:13.021Z,9.358550
2023-03-04T11:31:13.026Z,9.358489
2023-03-04T11:32:13.115Z,9.358527
2023-03-04T11:33:13.035Z,9.358571
2023-03-04T11:34:13.736Z,9.358574
2023-03-04T11:35:13.965Z,9.358580
2023-03-04T11:36:12.976Z,9.358553
2023-03-04T11:37:12.953Z,9.358601
2023-03-04T11:38:12.976Z,9.358575
2023-03-04T11:39:12.931Z,9.358591
2023-03-04T11:40:12.968Z,9.358562
2023-03-04T11:41:12.926Z,9.358546
2023-03-04T11:42:12.929Z,9.358597
2023-03-04T11:43:12.924Z,9.358611
2023-03-04T11:44:12.906Z,9.358567
2023-03-04T11:45:27.398Z,9.358570
2023-03-04T11:46:14.944Z,9.358599